CYTH

Thompson Airport

Thompson, Manitoba, Canada
TAF CYTH 210038Z 2101/2113 20012KT P6SM FEW050 FM210300 18008KT P6SM SCT060 BKN120 TEMPO 2103/2109 P6SM -SHRA BKN060 RMK NXT FCST BY 210700Z
Issued Valid From Valid To
Apr-21 @ 00:38 UTC
(3 hours ago)
Apr-21 @ 01:00 UTC
(3 hours ago)
Apr-21 @ 13:00 UTC
(in 9 hours)
Expired Click to View Apr-21 @ 01:00 to Apr-21 @ 03:00
TAF CYTH 210038Z 2101/2113 20012KT P6SM FEW050
Wind Visibility Clouds
200° at 12 knots Greater than 6 miles
  • Few at 5,000' AGL
Temporary Apr-21 @ 03:00 to Apr-21 @ 09:00
TEMPO 2103/2109 P6SM -SHRA BKN060 RMK NXT FCST BY 210700Z
Visibility Clouds Conditions
Greater than 6 miles
  • Broken at 6,000' AGL
  • Light Rain
From Apr-21 @ 03:00 to Apr-21 @ 13:00
FM210300 18008KT P6SM SCT060 BKN120
Wind Visibility Clouds
180° at 8 knots Greater than 6 miles
  • Scattered at 6,000' AGL
  • Broken at 12,000' AGL
TAF CYTH 210038Z 2101/2113 20012KT P6SM FEW050 FM210300 18008KT P6SM SCT060 BKN120 TEMPO 2103/2109 P6SM -SHRA BKN060 RMK NXT FCST BY 210700Z
Issued Apr-21 @ 00:38 UTC
(3 hours ago)
Valid From Apr-21 @ 01:00 UTC
(3 hours ago)
Valid To Apr-21 @ 13:00 UTC
(in 9 hours)
Apr-21 @ 01:00 - Apr-21 @ 03:00
Wind Visibility
200° at 12 knots Greater than 6 miles
Clouds
  • Few at 5,000' AGL
Temporary Apr-21 @ 03:00 - Apr-21 @ 09:00
Clouds
  • Broken at 6,000' AGL
Conditions
  • Light Rain
From Apr-21 @ 03:00 - Apr-21 @ 13:00
Wind Visibility
180° at 8 knots Greater than 6 miles
Clouds
  • Scattered at 6,000' AGL
  • Broken at 12,000' AGL